• Join FlightAware (Why Join?)
  • Login
  • US Flag 
08:10PM EST


 

Airport Tracker/Info


-or-


 

Live Flight TrackerFlight Track Log ✈ DAL6115 ✈ 18-Apr-2013 ✈ KJFK - KROC

Flight Track Log - Related Links

Times and Time Zones

All times are in EDT time to prevent confusion due to time zone crossing. See the DAL6115 flight status page for this flight to view local times or setup timezone preferences in your user account.

Time Position Orientation Groundspeed Altitude Reporting Facility
EDT Latitude Longitude Course Direction KTS MPH feet Rate Location/Type
10:20AM 40.6667 -73.7167 323° Northwest 184 212 2,200  Level New York TRACON
10:21AM 40.6667 -73.6500 90° East 226 260 4,500 2,100 Climbing New York TRACON
10:22AM 40.8277 -74.0480 315° West  Level FlightAware Approximate
10:22AM 40.7167 -73.5833 45° Northeast 267 307 6,500  Level New York TRACON
10:23AM 40.8968 -74.1401 315° West  Level FlightAware Approximate
10:23AM 40.7667 -73.5000 52° Northeast 289 333 8,800  Level New York TRACON
10:24AM 40.9668 -74.2311 316° Northwest  Level FlightAware Approximate
10:24AM 40.8333 -73.5167 349° North 289 333 10,800  Level New York TRACON
10:25AM 41.0376 -74.3210 323° Northwest  Level FlightAware Approximate
10:25AM 40.9000 -73.5667 330° Northwest 315 362 12,100  Level New York TRACON
10:26AM 40.9833 -73.6500 323° Northwest 340 391 14,100 1,860 Climbing New York TRACON
10:27AM 41.0333 -73.7667 300° West 323 372 16,100 1,440 Climbing New York TRACON
10:28AM 41.0667 -73.8667 294° West 329 379 17,000 300 Climbing New York TRACON
10:30AM 41.1192 -74.0844 288° West 377 434 17,000 120 Level New York Center
10:31AM 41.1469 -74.2097 286° West 370 426 17,400 600 Climbing New York Center
10:32AM 41.2128 -74.3042 313° West 341 392 18,300 1,080 Climbing New York Center
10:33AM 41.2922 -74.3636 331° Northwest 347 399 19,600 1,260 Climbing New York Center
10:34AM 41.3983 -74.4383 332° Northwest 377 434 20,900 1,140 Climbing New York Center
10:35AM 41.4853 -74.5206 325° Northwest 383 441 21,900 1,020 Climbing New York Center
10:36AM 41.5397 -74.6428 301° West 375 432 23,000 960 Climbing New York Center
10:37AM 41.5881 -74.7536 300° West 392 451 23,900 480 Climbing New York Center
10:38AM 41.6478 -74.8933 300° West 398 458 24,000  Climbing New York Center
10:39AM 41.7056 -75.0247 301° West 404 465 24,000  Level New York Center
10:40AM 41.7572 -75.1475 299° West 404 465 24,000  Level New York Center
10:41AM 41.8111 -75.2708 300° West 388 447 24,000  Level New York Center
10:42AM 41.8567 -75.3825 299° West 388 447 24,000  Level New York Center
10:43AM 41.9100 -75.5061 300° West 388 447 24,000  Level New York Center
10:44AM 41.9669 -75.6439 299° West 388 447 24,000  Level New York Center
10:45AM 42.0144 -75.7564 300° West 388 447 24,000 -60 Level New York Center
10:46AM 42.0675 -75.8775 301° West 381 438 23,900 -540 Descending New York Center
10:47AM 42.1186 -75.9989 300° West 381 438 22,900 -1,080 Descending New York Center
10:48AM 42.1672 -76.1203 298° West 376 433 21,800 -1,260 Descending New York Center
10:49AM 42.2200 -76.2394 301° West 376 433 20,500 -1,440 Descending New York Center
10:50AM 42.2667 -76.3581 298° West 371 427 19,000 -1,680 Descending New York Center
10:50AM 42.2864 -76.4064 299° West 364 419 18,400 -1,560 Descending Cleveland Center
10:51AM 42.3322 -76.5214 298° West 351 404 17,100 -1,200 Descending Cleveland Center
10:52AM 42.3758 -76.6311 298° West 340 391 16,100 -600 Descending Cleveland Center
10:53AM 42.4233 -76.7433 300° West 340 391 16,000  Descending Cleveland Center
10:54AM 42.4853 -76.8522 308° West 351 404 16,200  Climbing Cleveland Center
10:55AM 42.5614 -76.9492 317° Northwest 363 418 16,100 -900 Descending Cleveland Center
10:56AM 42.6158 -77.0194 316° Northwest 368 423 14,700 -1,800 Descending Cleveland Center
10:56AM 42.6461 -77.0572 317° Northwest 360 414 14,000 -1,560 Descending Cleveland Center
10:57AM 42.7069 -77.1358 316° Northwest 363 418 12,800 -1,680 Descending Cleveland Center
10:57AM 42.7286 -77.1631 317° Northwest 367 422 12,200 -1,740 Descending Cleveland Center
10:58AM 42.7783 -77.2281 316° Northwest 363 418 11,100 -1,620 Descending Cleveland Center
10:58AM 42.7978 -77.2525 317° Northwest 316 364 10,600 -1,140 Descending Cleveland Center
10:59AM 42.8389 -77.3042 317° Northwest 333 383 10,000 -1,320 Descending Cleveland Center
10:59AM 42.8542 -77.3261 314° West 268 308 9,300 -2,220 Descending Cleveland Center
11:00AM 42.9017 -77.3917 315° West 258 297 7,400 -1,980 Descending Cleveland Center
11:01AM 42.9525 -77.4175 340° North 248 285 6,000 -1,740 Descending Cleveland Center
11:02AM 43.0297 -77.4192 359° North 257 296 4,300 -1,620 Descending Cleveland Center
11:03AM 43.1011 -77.4383 349° North 257 296 2,800 -1,380 Descending Cleveland Center
11:03AM 43.1244 -77.4542 334° Northwest 251 289 2,500 -240 Descending Cleveland Center
11:04AM 43.1836 -77.4797 343° North 249 287 2,500  Level Cleveland Center
11:05AM 43.2489 -77.5133 339° North 263 303 2,500  Level Cleveland Center
11:06AM 43.2381 -77.5767 257° West 163 188 2,500  Level Cleveland Center